Memorial Village's Hourly Summary for Monday, May 14, 2018
Hour Temp
(f)
RH
(%)
Solar Rad.
(MJ/m2)
Rainfall
(in)
Wind
(mph)
5/14/2018 12:00 AM 76 85 0 0 0.41
5/14/2018 1:00 AM 75 87 0 0 0.3
5/14/2018 2:00 AM 75 89 0 0 0.14
5/14/2018 3:00 AM 74 90 0 0 0.13
5/14/2018 4:00 AM 74 91 0 0 0.11
5/14/2018 5:00 AM 73 92 0 0 0.05
5/14/2018 6:00 AM 73 93 0.02 0 0
5/14/2018 7:00 AM 74 86 0.14 0 0.06
5/14/2018 8:00 AM 78 75 0.69 0 0.51
5/14/2018 9:00 AM 80 65 1.36 0 1.19
5/14/2018 10:00 AM 83 59 1.76 0 1.64
5/14/2018 11:00 AM 85 52 2.68 0 1.77
5/14/2018 12:00 PM 86 47 2.58 0 1.71
5/14/2018 1:00 PM 89 37 2.78 0 1.94
5/14/2018 2:00 PM 91 33 3.08 0 1.69
5/14/2018 3:00 PM 91 32 2.69 0 2.35
5/14/2018 4:00 PM 90 31 1.31 0 1.44
5/14/2018 5:00 PM 88 36 1.23 0 2.05
5/14/2018 6:00 PM 86 41 0.78 0 1.56
5/14/2018 7:00 PM 83 54 0.16 0 1.01
5/14/2018 8:00 PM 80 61 0 0 0.76
5/14/2018 9:00 PM 78 66 0 0 1.54
5/14/2018 10:00 PM 76 75 0 0 0.91
5/14/2018 11:00 PM 76 80 0 0 0.8
Data Summary 80 64 21.26 0.00 1.00